sensor_id;sensor_type;location;lat;lon;timestamp;pressure;altitude;pressure_sealevel;temperature
14851;BMP180;7517;48.400;11.770;2022-10-31T00:01:19;96895.00;;;15.20
14851;BMP180;7517;48.400;11.770;2022-10-31T00:03:47;96892.00;;;15.20
14851;BMP180;7517;48.400;11.770;2022-10-31T00:06:15;96895.00;;;15.20
14851;BMP180;7517;48.400;11.770;2022-10-31T00:08:44;96896.00;;;15.10
14851;BMP180;7517;48.400;11.770;2022-10-31T00:11:13;96898.00;;;15.10
14851;BMP180;7517;48.400;11.770;2022-10-31T00:13:40;96896.00;;;15.10
14851;BMP180;7517;48.400;11.770;2022-10-31T00:16:14;96899.00;;;15.10
14851;BMP180;7517;48.400;11.770;2022-10-31T00:18:42;96896.00;;;15.00
14851;BMP180;7517;48.400;11.770;2022-10-31T00:21:09;96896.00;;;15.00
14851;BMP180;7517;48.400;11.770;2022-10-31T00:23:36;96890.00;;;15.00
14851;BMP180;7517;48.400;11.770;2022-10-31T00:26:04;96895.00;;;15.00
14851;BMP180;7517;48.400;11.770;2022-10-31T00:28:34;96888.00;;;15.00
14851;BMP180;7517;48.400;11.770;2022-10-31T00:31:02;96892.00;;;14.90
14851;BMP180;7517;48.400;11.770;2022-10-31T00:33:30;96881.00;;;14.90
14851;BMP180;7517;48.400;11.770;2022-10-31T00:35:57;96889.00;;;14.90
14851;BMP180;7517;48.400;11.770;2022-10-31T00:38:24;96890.00;;;14.90
14851;BMP180;7517;48.400;11.770;2022-10-31T00:40:52;96883.00;;;14.90
14851;BMP180;7517;48.400;11.770;2022-10-31T00:43:19;96885.00;;;14.90
14851;BMP180;7517;48.400;11.770;2022-10-31T00:45:48;96890.00;;;14.80
14851;BMP180;7517;48.400;11.770;2022-10-31T00:48:15;96892.00;;;14.80
14851;BMP180;7517;48.400;11.770;2022-10-31T00:50:43;96887.00;;;14.80
14851;BMP180;7517;48.400;11.770;2022-10-31T00:53:10;96888.00;;;14.80
14851;BMP180;7517;48.400;11.770;2022-10-31T00:55:37;96887.00;;;14.70
14851;BMP180;7517;48.400;11.770;2022-10-31T00:58:04;96892.00;;;14.70
14851;BMP180;7517;48.400;11.770;2022-10-31T01:00:31;96897.00;;;14.70
14851;BMP180;7517;48.400;11.770;2022-10-31T01:03:00;96886.00;;;14.70
14851;BMP180;7517;48.400;11.770;2022-10-31T01:05:27;96887.00;;;14.70
14851;BMP180;7517;48.400;11.770;2022-10-31T01:07:55;96888.00;;;14.70
14851;BMP180;7517;48.400;11.770;2022-10-31T01:10:22;96885.00;;;14.70
14851;BMP180;7517;48.400;11.770;2022-10-31T01:12:50;96885.00;;;14.70
14851;BMP180;7517;48.400;11.770;2022-10-31T01:15:20;96884.00;;;14.60
14851;BMP180;7517;48.400;11.770;2022-10-31T01:17:49;96880.00;;;14.60
14851;BMP180;7517;48.400;11.770;2022-10-31T01:20:18;96876.00;;;14.60
14851;BMP180;7517;48.400;11.770;2022-10-31T01:22:46;96878.00;;;14.60
14851;BMP180;7517;48.400;11.770;2022-10-31T01:25:13;96876.00;;;14.50
14851;BMP180;7517;48.400;11.770;2022-10-31T01:27:40;96876.00;;;14.50
14851;BMP180;7517;48.400;11.770;2022-10-31T01:30:09;96878.00;;;14.50
14851;BMP180;7517;48.400;11.770;2022-10-31T01:32:36;96880.00;;;14.50
14851;BMP180;7517;48.400;11.770;2022-10-31T01:35:04;96879.00;;;14.50
14851;BMP180;7517;48.400;11.770;2022-10-31T01:37:33;96877.00;;;14.50
14851;BMP180;7517;48.400;11.770;2022-10-31T01:40:00;96877.00;;;14.40
14851;BMP180;7517;48.400;11.770;2022-10-31T01:42:27;96878.00;;;14.40
14851;BMP180;7517;48.400;11.770;2022-10-31T01:44:59;96880.00;;;14.40
14851;BMP180;7517;48.400;11.770;2022-10-31T01:47:42;96875.00;;;14.40
14851;BMP180;7517;48.400;11.770;2022-10-31T01:50:26;96876.00;;;14.30
14851;BMP180;7517;48.400;11.770;2022-10-31T01:52:57;96876.00;;;14.30
14851;BMP180;7517;48.400;11.770;2022-10-31T01:55:32;96879.00;;;14.30
14851;BMP180;7517;48.400;11.770;2022-10-31T01:58:08;96885.00;;;14.30
14851;BMP180;7517;48.400;11.770;2022-10-31T02:00:37;96871.00;;;14.30
14851;BMP180;7517;48.400;11.770;2022-10-31T02:03:04;96877.00;;;14.20
14851;BMP180;7517;48.400;11.770;2022-10-31T02:05:33;96879.00;;;14.20
14851;BMP180;7517;48.400;11.770;2022-10-31T02:08:06;96876.00;;;14.20
14851;BMP180;7517;48.400;11.770;2022-10-31T02:10:37;96873.00;;;14.20
14851;BMP180;7517;48.400;11.770;2022-10-31T02:13:06;96881.00;;;14.10
14851;BMP180;7517;48.400;11.770;2022-10-31T02:15:36;96876.00;;;14.10
14851;BMP180;7517;48.400;11.770;2022-10-31T02:18:05;96875.00;;;14.10
14851;BMP180;7517;48.400;11.770;2022-10-31T02:20:44;96879.00;;;14.10
14851;BMP180;7517;48.400;11.770;2022-10-31T02:23:59;96876.00;;;14.10
14851;BMP180;7517;48.400;11.770;2022-10-31T02:26:57;96872.00;;;14.00
14851;BMP180;7517;48.400;11.770;2022-10-31T02:30:06;96872.00;;;14.00
14851;BMP180;7517;48.400;11.770;2022-10-31T02:32:57;96864.00;;;14.00
14851;BMP180;7517;48.400;11.770;2022-10-31T02:35:50;96872.00;;;14.00
14851;BMP180;7517;48.400;11.770;2022-10-31T02:38:34;96866.00;;;14.00
14851;BMP180;7517;48.400;11.770;2022-10-31T02:41:18;96867.00;;;14.00
14851;BMP180;7517;48.400;11.770;2022-10-31T02:43:56;96872.00;;;14.00
14851;BMP180;7517;48.400;11.770;2022-10-31T02:46:33;96866.00;;;14.00
14851;BMP180;7517;48.400;11.770;2022-10-31T02:49:07;96871.00;;;13.90
14851;BMP180;7517;48.400;11.770;2022-10-31T02:51:36;96873.00;;;13.90
14851;BMP180;7517;48.400;11.770;2022-10-31T02:54:03;96871.00;;;13.90
14851;BMP180;7517;48.400;11.770;2022-10-31T02:56:30;96871.00;;;13.90
14851;BMP180;7517;48.400;11.770;2022-10-31T02:59:03;96876.00;;;13.90
14851;BMP180;7517;48.400;11.770;2022-10-31T03:02:06;96883.00;;;13.90
14851;BMP180;7517;48.400;11.770;2022-10-31T03:05:07;96875.00;;;13.80
14851;BMP180;7517;48.400;11.770;2022-10-31T03:07:47;96877.00;;;13.80
14851;BMP180;7517;48.400;11.770;2022-10-31T03:10:30;96882.00;;;13.70
14851;BMP180;7517;48.400;11.770;2022-10-31T03:13:07;96878.00;;;13.70
14851;BMP180;7517;48.400;11.770;2022-10-31T03:15:40;96884.00;;;13.70
14851;BMP180;7517;48.400;11.770;2022-10-31T03:18:17;96890.00;;;13.70
14851;BMP180;7517;48.400;11.770;2022-10-31T03:20:56;96884.00;;;13.70
14851;BMP180;7517;48.400;11.770;2022-10-31T03:23:26;96881.00;;;13.70
14851;BMP180;7517;48.400;11.770;2022-10-31T03:25:55;96881.00;;;13.60
14851;BMP180;7517;48.400;11.770;2022-10-31T03:28:28;96882.00;;;13.60
14851;BMP180;7517;48.400;11.770;2022-10-31T03:30:58;96888.00;;;13.60
14851;BMP180;7517;48.400;11.770;2022-10-31T03:33:32;96886.00;;;13.60
14851;BMP180;7517;48.400;11.770;2022-10-31T03:36:06;96887.00;;;13.60
14851;BMP180;7517;48.400;11.770;2022-10-31T03:38:36;96881.00;;;13.60
14851;BMP180;7517;48.400;11.770;2022-10-31T03:41:09;96884.00;;;13.50
14851;BMP180;7517;48.400;11.770;2022-10-31T03:43:43;96887.00;;;13.50
14851;BMP180;7517;48.400;11.770;2022-10-31T03:46:13;96883.00;;;13.50
14851;BMP180;7517;48.400;11.770;2022-10-31T03:48:40;96894.00;;;13.50
14851;BMP180;7517;48.400;11.770;2022-10-31T03:51:17;96889.00;;;13.50
14851;BMP180;7517;48.400;11.770;2022-10-31T03:53:54;96886.00;;;13.40
14851;BMP180;7517;48.400;11.770;2022-10-31T03:56:31;96885.00;;;13.40
14851;BMP180;7517;48.400;11.770;2022-10-31T03:59:06;96879.00;;;13.40
14851;BMP180;7517;48.400;11.770;2022-10-31T04:01:41;96876.00;;;13.40
14851;BMP180;7517;48.400;11.770;2022-10-31T04:04:11;96878.00;;;13.40
14851;BMP180;7517;48.400;11.770;2022-10-31T04:06:43;96874.00;;;13.30
14851;BMP180;7517;48.400;11.770;2022-10-31T04:09:12;96872.00;;;13.30
14851;BMP180;7517;48.400;11.770;2022-10-31T04:11:46;96881.00;;;13.30
14851;BMP180;7517;48.400;11.770;2022-10-31T04:14:14;96880.00;;;13.30
14851;BMP180;7517;48.400;11.770;2022-10-31T04:16:44;96880.00;;;13.30
14851;BMP180;7517;48.400;11.770;2022-10-31T04:19:12;96883.00;;;13.30
14851;BMP180;7517;48.400;11.770;2022-10-31T04:21:40;96882.00;;;13.30
14851;BMP180;7517;48.400;11.770;2022-10-31T04:24:09;96886.00;;;13.30
14851;BMP180;7517;48.400;11.770;2022-10-31T04:26:37;96885.00;;;13.30
14851;BMP180;7517;48.400;11.770;2022-10-31T04:29:04;96880.00;;;13.30
14851;BMP180;7517;48.400;11.770;2022-10-31T04:31:31;96889.00;;;13.20
14851;BMP180;7517;48.400;11.770;2022-10-31T04:33:58;96891.00;;;13.20
14851;BMP180;7517;48.400;11.770;2022-10-31T04:36:25;96890.00;;;13.20
14851;BMP180;7517;48.400;11.770;2022-10-31T04:38:54;96886.00;;;13.20
14851;BMP180;7517;48.400;11.770;2022-10-31T04:41:21;96882.00;;;13.20
14851;BMP180;7517;48.400;11.770;2022-10-31T04:43:48;96882.00;;;13.20
14851;BMP180;7517;48.400;11.770;2022-10-31T04:46:16;96887.00;;;13.20
14851;BMP180;7517;48.400;11.770;2022-10-31T04:48:43;96876.00;;;13.20
14851;BMP180;7517;48.400;11.770;2022-10-31T04:51:10;96883.00;;;13.20
14851;BMP180;7517;48.400;11.770;2022-10-31T04:53:38;96884.00;;;13.10
14851;BMP180;7517;48.400;11.770;2022-10-31T04:56:07;96883.00;;;13.10
14851;BMP180;7517;48.400;11.770;2022-10-31T04:58:37;96886.00;;;13.10
14851;BMP180;7517;48.400;11.770;2022-10-31T05:01:04;96888.00;;;13.10
14851;BMP180;7517;48.400;11.770;2022-10-31T05:03:31;96881.00;;;13.10
14851;BMP180;7517;48.400;11.770;2022-10-31T05:05:58;96888.00;;;13.10
14851;BMP180;7517;48.400;11.770;2022-10-31T05:08:25;96888.00;;;13.00
14851;BMP180;7517;48.400;11.770;2022-10-31T05:10:52;96885.00;;;13.00
14851;BMP180;7517;48.400;11.770;2022-10-31T05:13:21;96881.00;;;13.00
14851;BMP180;7517;48.400;11.770;2022-10-31T05:15:51;96878.00;;;13.00
14851;BMP180;7517;48.400;11.770;2022-10-31T05:18:18;96882.00;;;13.00
14851;BMP180;7517;48.400;11.770;2022-10-31T05:20:45;96879.00;;;13.00
14851;BMP180;7517;48.400;11.770;2022-10-31T05:23:13;96880.00;;;13.00
14851;BMP180;7517;48.400;11.770;2022-10-31T05:25:41;96878.00;;;13.00
14851;BMP180;7517;48.400;11.770;2022-10-31T05:28:08;96877.00;;;13.00
14851;BMP180;7517;48.400;11.770;2022-10-31T05:30:36;96875.00;;;13.00
14851;BMP180;7517;48.400;11.770;2022-10-31T05:33:03;96878.00;;;13.00
14851;BMP180;7517;48.400;11.770;2022-10-31T05:35:32;96870.00;;;13.00
14851;BMP180;7517;48.400;11.770;2022-10-31T05:38:00;96873.00;;;13.00
14851;BMP180;7517;48.400;11.770;2022-10-31T05:40:28;96877.00;;;13.00
14851;BMP180;7517;48.400;11.770;2022-10-31T05:42:56;96869.00;;;13.00
14851;BMP180;7517;48.400;11.770;2022-10-31T05:45:24;96881.00;;;13.00
14851;BMP180;7517;48.400;11.770;2022-10-31T05:47:54;96871.00;;;13.00
14851;BMP180;7517;48.400;11.770;2022-10-31T05:50:23;96871.00;;;12.90
14851;BMP180;7517;48.400;11.770;2022-10-31T05:52:56;96872.00;;;13.00
14851;BMP180;7517;48.400;11.770;2022-10-31T05:55:23;96871.00;;;13.00
14851;BMP180;7517;48.400;11.770;2022-10-31T05:57:51;96878.00;;;13.10
14851;BMP180;7517;48.400;11.770;2022-10-31T06:00:19;96879.00;;;13.20
14851;BMP180;7517;48.400;11.770;2022-10-31T06:02:46;96886.00;;;13.20
14851;BMP180;7517;48.400;11.770;2022-10-31T06:05:15;96883.00;;;13.30
14851;BMP180;7517;48.400;11.770;2022-10-31T06:07:43;96884.00;;;13.30
14851;BMP180;7517;48.400;11.770;2022-10-31T06:10:10;96880.00;;;13.30
14851;BMP180;7517;48.400;11.770;2022-10-31T06:12:37;96876.00;;;13.30
14851;BMP180;7517;48.400;11.770;2022-10-31T06:15:07;96884.00;;;13.30
14851;BMP180;7517;48.400;11.770;2022-10-31T06:17:35;96884.00;;;13.30
14851;BMP180;7517;48.400;11.770;2022-10-31T06:20:04;96896.00;;;13.30
14851;BMP180;7517;48.400;11.770;2022-10-31T06:22:33;96887.00;;;13.30
14851;BMP180;7517;48.400;11.770;2022-10-31T06:25:00;96891.00;;;13.30
14851;BMP180;7517;48.400;11.770;2022-10-31T06:27:27;96896.00;;;13.30
14851;BMP180;7517;48.400;11.770;2022-10-31T06:29:55;96891.00;;;13.30
14851;BMP180;7517;48.400;11.770;2022-10-31T06:32:22;96894.00;;;13.30
14851;BMP180;7517;48.400;11.770;2022-10-31T06:34:49;96894.00;;;13.30
14851;BMP180;7517;48.400;11.770;2022-10-31T06:37:16;96894.00;;;13.30
14851;BMP180;7517;48.400;11.770;2022-10-31T06:39:45;96888.00;;;13.30
14851;BMP180;7517;48.400;11.770;2022-10-31T06:42:12;96883.00;;;13.30
14851;BMP180;7517;48.400;11.770;2022-10-31T06:44:39;96885.00;;;13.30
14851;BMP180;7517;48.400;11.770;2022-10-31T06:47:06;96883.00;;;13.20
14851;BMP180;7517;48.400;11.770;2022-10-31T06:49:33;96883.00;;;13.30
14851;BMP180;7517;48.400;11.770;2022-10-31T06:52:01;96882.00;;;13.20
14851;BMP180;7517;48.400;11.770;2022-10-31T06:54:28;96892.00;;;13.30
14851;BMP180;7517;48.400;11.770;2022-10-31T06:56:56;96898.00;;;13.30
14851;BMP180;7517;48.400;11.770;2022-10-31T06:59:23;96894.00;;;13.30
14851;BMP180;7517;48.400;11.770;2022-10-31T07:01:50;96894.00;;;13.30
14851;BMP180;7517;48.400;11.770;2022-10-31T07:04:17;96897.00;;;13.30
14851;BMP180;7517;48.400;11.770;2022-10-31T07:06:44;96896.00;;;13.30
14851;BMP180;7517;48.400;11.770;2022-10-31T07:09:12;96905.00;;;13.40
14851;BMP180;7517;48.400;11.770;2022-10-31T07:11:39;96901.00;;;13.40
14851;BMP180;7517;48.400;11.770;2022-10-31T07:14:07;96902.00;;;13.40
14851;BMP180;7517;48.400;11.770;2022-10-31T07:16:34;96904.00;;;13.50
14851;BMP180;7517;48.400;11.770;2022-10-31T07:19:01;96905.00;;;13.50
14851;BMP180;7517;48.400;11.770;2022-10-31T07:21:28;96906.00;;;13.60
14851;BMP180;7517;48.400;11.770;2022-10-31T07:23:55;96905.00;;;13.60
14851;BMP180;7517;48.400;11.770;2022-10-31T07:26:22;96904.00;;;13.70
14851;BMP180;7517;48.400;11.770;2022-10-31T07:28:50;96901.00;;;13.70
14851;BMP180;7517;48.400;11.770;2022-10-31T07:31:20;96899.00;;;13.80
14851;BMP180;7517;48.400;11.770;2022-10-31T07:33:47;96895.00;;;13.80
14851;BMP180;7517;48.400;11.770;2022-10-31T07:36:14;96903.00;;;13.90
14851;BMP180;7517;48.400;11.770;2022-10-31T07:38:42;96897.00;;;13.90
14851;BMP180;7517;48.400;11.770;2022-10-31T07:41:09;96899.00;;;14.00
14851;BMP180;7517;48.400;11.770;2022-10-31T07:43:36;96891.00;;;14.00
14851;BMP180;7517;48.400;11.770;2022-10-31T07:46:03;96893.00;;;14.10
14851;BMP180;7517;48.400;11.770;2022-10-31T07:48:32;96900.00;;;14.10
14851;BMP180;7517;48.400;11.770;2022-10-31T07:50:59;96905.00;;;14.20
14851;BMP180;7517;48.400;11.770;2022-10-31T07:53:26;96901.00;;;14.30
14851;BMP180;7517;48.400;11.770;2022-10-31T07:56:11;96908.00;;;14.40
14851;BMP180;7517;48.400;11.770;2022-10-31T07:58:38;96907.00;;;14.40
14851;BMP180;7517;48.400;11.770;2022-10-31T08:01:05;96900.00;;;14.50
14851;BMP180;7517;48.400;11.770;2022-10-31T08:03:34;96899.00;;;14.60
14851;BMP180;7517;48.400;11.770;2022-10-31T08:06:01;96900.00;;;14.70
14851;BMP180;7517;48.400;11.770;2022-10-31T08:08:28;96895.00;;;14.70
14851;BMP180;7517;48.400;11.770;2022-10-31T08:10:55;96899.00;;;14.80
14851;BMP180;7517;48.400;11.770;2022-10-31T08:13:22;96899.00;;;14.90
14851;BMP180;7517;48.400;11.770;2022-10-31T08:15:49;96890.00;;;14.90
14851;BMP180;7517;48.400;11.770;2022-10-31T08:18:18;96897.00;;;15.00
14851;BMP180;7517;48.400;11.770;2022-10-31T08:20:46;96894.00;;;15.10
14851;BMP180;7517;48.400;11.770;2022-10-31T08:23:13;96893.00;;;15.20
14851;BMP180;7517;48.400;11.770;2022-10-31T08:25:41;96888.00;;;15.30
14851;BMP180;7517;48.400;11.770;2022-10-31T08:28:10;96887.00;;;15.40
14851;BMP180;7517;48.400;11.770;2022-10-31T08:30:39;96882.00;;;15.50
14851;BMP180;7517;48.400;11.770;2022-10-31T08:33:11;96875.00;;;15.50
14851;BMP180;7517;48.400;11.770;2022-10-31T08:35:39;96872.00;;;15.60
14851;BMP180;7517;48.400;11.770;2022-10-31T08:38:09;96875.00;;;15.70
14851;BMP180;7517;48.400;11.770;2022-10-31T08:40:37;96872.00;;;15.80
14851;BMP180;7517;48.400;11.770;2022-10-31T08:43:08;96871.00;;;15.80
14851;BMP180;7517;48.400;11.770;2022-10-31T08:45:37;96869.00;;;15.90
14851;BMP180;7517;48.400;11.770;2022-10-31T08:48:08;96862.00;;;16.00
14851;BMP180;7517;48.400;11.770;2022-10-31T08:50:36;96863.00;;;16.10
14851;BMP180;7517;48.400;11.770;2022-10-31T08:53:07;96860.00;;;16.20
14851;BMP180;7517;48.400;11.770;2022-10-31T08:55:36;96859.00;;;16.30
14851;BMP180;7517;48.400;11.770;2022-10-31T08:58:05;96856.00;;;16.40
14851;BMP180;7517;48.400;11.770;2022-10-31T09:00:33;96864.00;;;16.40
14851;BMP180;7517;48.400;11.770;2022-10-31T09:03:02;96864.00;;;16.50
14851;BMP180;7517;48.400;11.770;2022-10-31T09:05:30;96856.00;;;16.60
14851;BMP180;7517;48.400;11.770;2022-10-31T09:07:59;96850.00;;;16.70
14851;BMP180;7517;48.400;11.770;2022-10-31T09:10:29;96850.00;;;16.80
14851;BMP180;7517;48.400;11.770;2022-10-31T09:12:57;96857.00;;;16.90
14851;BMP180;7517;48.400;11.770;2022-10-31T09:15:25;96849.00;;;17.00
14851;BMP180;7517;48.400;11.770;2022-10-31T09:17:54;96854.00;;;17.10
14851;BMP180;7517;48.400;11.770;2022-10-31T09:20:21;96836.00;;;17.30
14851;BMP180;7517;48.400;11.770;2022-10-31T09:22:55;96845.00;;;17.40
14851;BMP180;7517;48.400;11.770;2022-10-31T09:25:23;96835.00;;;17.60
14851;BMP180;7517;48.400;11.770;2022-10-31T09:27:55;96843.00;;;17.70
14851;BMP180;7517;48.400;11.770;2022-10-31T09:30:22;96834.00;;;17.90
14851;BMP180;7517;48.400;11.770;2022-10-31T09:32:55;96833.00;;;18.10
14851;BMP180;7517;48.400;11.770;2022-10-31T09:35:23;96837.00;;;18.20
14851;BMP180;7517;48.400;11.770;2022-10-31T09:37:54;96829.00;;;18.40
14851;BMP180;7517;48.400;11.770;2022-10-31T09:40:34;96833.00;;;18.60
14851;BMP180;7517;48.400;11.770;2022-10-31T09:43:25;96826.00;;;18.90
14851;BMP180;7517;48.400;11.770;2022-10-31T09:46:07;96830.00;;;19.10
14851;BMP180;7517;48.400;11.770;2022-10-31T09:48:56;96832.00;;;19.30
14851;BMP180;7517;48.400;11.770;2022-10-31T09:51:37;96826.00;;;19.50
14851;BMP180;7517;48.400;11.770;2022-10-31T09:54:16;96828.00;;;19.70
14851;BMP180;7517;48.400;11.770;2022-10-31T09:56:52;96828.00;;;19.90
14851;BMP180;7517;48.400;11.770;2022-10-31T09:59:34;96829.00;;;20.10
14851;BMP180;7517;48.400;11.770;2022-10-31T10:02:33;96813.00;;;20.30
14851;BMP180;7517;48.400;11.770;2022-10-31T10:05:14;96828.00;;;20.50
14851;BMP180;7517;48.400;11.770;2022-10-31T10:07:54;96818.00;;;20.70
14851;BMP180;7517;48.400;11.770;2022-10-31T10:10:34;96833.00;;;20.90
14851;BMP180;7517;48.400;11.770;2022-10-31T10:13:32;96829.00;;;21.10
14851;BMP180;7517;48.400;11.770;2022-10-31T10:16:19;96823.00;;;21.30
14851;BMP180;7517;48.400;11.770;2022-10-31T10:19:12;96829.00;;;21.40
14851;BMP180;7517;48.400;11.770;2022-10-31T10:21:58;96820.00;;;21.60
14851;BMP180;7517;48.400;11.770;2022-10-31T10:24:49;96821.00;;;21.70
14851;BMP180;7517;48.400;11.770;2022-10-31T10:27:30;96822.00;;;21.80
14851;BMP180;7517;48.400;11.770;2022-10-31T10:30:12;96820.00;;;21.80
14851;BMP180;7517;48.400;11.770;2022-10-31T10:32:46;96820.00;;;21.90
14851;BMP180;7517;48.400;11.770;2022-10-31T10:35:25;96819.00;;;21.90
14851;BMP180;7517;48.400;11.770;2022-10-31T10:38:01;96818.00;;;21.90
14851;BMP180;7517;48.400;11.770;2022-10-31T10:40:29;96817.00;;;21.90
14851;BMP180;7517;48.400;11.770;2022-10-31T10:43:15;96814.00;;;21.90
14851;BMP180;7517;48.400;11.770;2022-10-31T10:45:54;96815.00;;;21.90
14851;BMP180;7517;48.400;11.770;2022-10-31T10:48:45;96805.00;;;21.90
14851;BMP180;7517;48.400;11.770;2022-10-31T10:51:23;96796.00;;;21.90
14851;BMP180;7517;48.400;11.770;2022-10-31T10:54:22;96796.00;;;21.80
14851;BMP180;7517;48.400;11.770;2022-10-31T10:57:05;96794.00;;;21.80
14851;BMP180;7517;48.400;11.770;2022-10-31T10:59:35;96792.00;;;21.80
14851;BMP180;7517;48.400;11.770;2022-10-31T11:02:16;96791.00;;;21.80
14851;BMP180;7517;48.400;11.770;2022-10-31T11:04:48;96783.00;;;21.80
14851;BMP180;7517;48.400;11.770;2022-10-31T11:07:17;96778.00;;;21.80
14851;BMP180;7517;48.400;11.770;2022-10-31T11:09:44;96780.00;;;21.80
14851;BMP180;7517;48.400;11.770;2022-10-31T11:12:21;96774.00;;;21.80
14851;BMP180;7517;48.400;11.770;2022-10-31T11:14:57;96770.00;;;21.90
14851;BMP180;7517;48.400;11.770;2022-10-31T11:17:30;96773.00;;;21.90
14851;BMP180;7517;48.400;11.770;2022-10-31T11:20:23;96773.00;;;21.90
14851;BMP180;7517;48.400;11.770;2022-10-31T11:23:03;96771.00;;;21.90
14851;BMP180;7517;48.400;11.770;2022-10-31T11:25:30;96762.00;;;21.90
14851;BMP180;7517;48.400;11.770;2022-10-31T11:28:02;96760.00;;;22.00
14851;BMP180;7517;48.400;11.770;2022-10-31T11:30:30;96763.00;;;22.00
14851;BMP180;7517;48.400;11.770;2022-10-31T11:33:03;96765.00;;;22.10
14851;BMP180;7517;48.400;11.770;2022-10-31T11:35:32;96755.00;;;22.10
14851;BMP180;7517;48.400;11.770;2022-10-31T11:38:05;96758.00;;;22.10
14851;BMP180;7517;48.400;11.770;2022-10-31T11:40:32;96759.00;;;22.20
14851;BMP180;7517;48.400;11.770;2022-10-31T11:42:59;96751.00;;;22.20
14851;BMP180;7517;48.400;11.770;2022-10-31T11:45:31;96747.00;;;22.20
14851;BMP180;7517;48.400;11.770;2022-10-31T11:48:01;96745.00;;;22.30
14851;BMP180;7517;48.400;11.770;2022-10-31T11:50:37;96734.00;;;22.30
14851;BMP180;7517;48.400;11.770;2022-10-31T11:53:15;96727.00;;;22.30
14851;BMP180;7517;48.400;11.770;2022-10-31T11:55:42;96734.00;;;22.30
14851;BMP180;7517;48.400;11.770;2022-10-31T11:58:22;96725.00;;;22.30
14851;BMP180;7517;48.400;11.770;2022-10-31T12:00:52;96726.00;;;22.30
14851;BMP180;7517;48.400;11.770;2022-10-31T12:03:51;96723.00;;;22.30
14851;BMP180;7517;48.400;11.770;2022-10-31T12:06:26;96725.00;;;22.30
14851;BMP180;7517;48.400;11.770;2022-10-31T12:08:54;96718.00;;;22.40
14851;BMP180;7517;48.400;11.770;2022-10-31T12:11:40;96716.00;;;22.40
14851;BMP180;7517;48.400;11.770;2022-10-31T12:14:25;96722.00;;;22.40
14851;BMP180;7517;48.400;11.770;2022-10-31T12:17:13;96720.00;;;22.40
14851;BMP180;7517;48.400;11.770;2022-10-31T12:19:53;96724.00;;;22.40
14851;BMP180;7517;48.400;11.770;2022-10-31T12:22:37;96721.00;;;22.50
14851;BMP180;7517;48.400;11.770;2022-10-31T12:25:23;96724.00;;;22.50
14851;BMP180;7517;48.400;11.770;2022-10-31T12:28:16;96708.00;;;22.50
14851;BMP180;7517;48.400;11.770;2022-10-31T12:31:02;96716.00;;;22.50
14851;BMP180;7517;48.400;11.770;2022-10-31T12:33:49;96712.00;;;22.50
14851;BMP180;7517;48.400;11.770;2022-10-31T12:36:40;96701.00;;;22.60
14851;BMP180;7517;48.400;11.770;2022-10-31T12:39:25;96705.00;;;22.60
14851;BMP180;7517;48.400;11.770;2022-10-31T12:42:07;96703.00;;;22.60
14851;BMP180;7517;48.400;11.770;2022-10-31T12:45:01;96693.00;;;22.60
14851;BMP180;7517;48.400;11.770;2022-10-31T12:48:04;96690.00;;;22.60
14851;BMP180;7517;48.400;11.770;2022-10-31T12:50:50;96691.00;;;22.70
14851;BMP180;7517;48.400;11.770;2022-10-31T12:53:40;96683.00;;;22.70
14851;BMP180;7517;48.400;11.770;2022-10-31T12:56:29;96688.00;;;22.70
14851;BMP180;7517;48.400;11.770;2022-10-31T12:59:06;96687.00;;;22.70
14851;BMP180;7517;48.400;11.770;2022-10-31T13:01:39;96673.00;;;22.70
14851;BMP180;7517;48.400;11.770;2022-10-31T13:04:19;96677.00;;;22.70
14851;BMP180;7517;48.400;11.770;2022-10-31T13:06:50;96677.00;;;22.70
14851;BMP180;7517;48.400;11.770;2022-10-31T13:09:26;96671.00;;;22.70
14851;BMP180;7517;48.400;11.770;2022-10-31T13:12:02;96672.00;;;22.70
14851;BMP180;7517;48.400;11.770;2022-10-31T13:14:37;96672.00;;;22.70
14851;BMP180;7517;48.400;11.770;2022-10-31T13:17:06;96662.00;;;22.60
14851;BMP180;7517;48.400;11.770;2022-10-31T13:19:39;96656.00;;;22.60
14851;BMP180;7517;48.400;11.770;2022-10-31T13:22:12;96654.00;;;22.60
14851;BMP180;7517;48.400;11.770;2022-10-31T13:24:57;96649.00;;;22.60
14851;BMP180;7517;48.400;11.770;2022-10-31T13:27:35;96645.00;;;22.60
14851;BMP180;7517;48.400;11.770;2022-10-31T13:30:15;96649.00;;;22.60
14851;BMP180;7517;48.400;11.770;2022-10-31T13:32:49;96641.00;;;22.60
14851;BMP180;7517;48.400;11.770;2022-10-31T13:35:26;96637.00;;;22.60
14851;BMP180;7517;48.400;11.770;2022-10-31T13:38:10;96636.00;;;22.60
14851;BMP180;7517;48.400;11.770;2022-10-31T13:40:50;96633.00;;;22.60
14851;BMP180;7517;48.400;11.770;2022-10-31T13:43:28;96624.00;;;22.60
14851;BMP180;7517;48.400;11.770;2022-10-31T13:45:58;96628.00;;;22.60
14851;BMP180;7517;48.400;11.770;2022-10-31T13:48:47;96619.00;;;22.60
14851;BMP180;7517;48.400;11.770;2022-10-31T13:51:26;96625.00;;;22.60
14851;BMP180;7517;48.400;11.770;2022-10-31T13:54:00;96622.00;;;22.60
14851;BMP180;7517;48.400;11.770;2022-10-31T13:56:30;96619.00;;;22.60
14851;BMP180;7517;48.400;11.770;2022-10-31T13:59:21;96623.00;;;22.60
14851;BMP180;7517;48.400;11.770;2022-10-31T14:01:56;96617.00;;;22.60
14851;BMP180;7517;48.400;11.770;2022-10-31T14:04:27;96617.00;;;22.70
14851;BMP180;7517;48.400;11.770;2022-10-31T14:07:05;96618.00;;;22.70
14851;BMP180;7517;48.400;11.770;2022-10-31T14:09:41;96621.00;;;22.70
14851;BMP180;7517;48.400;11.770;2022-10-31T14:12:27;96609.00;;;22.60
14851;BMP180;7517;48.400;11.770;2022-10-31T14:15:02;96606.00;;;22.60
14851;BMP180;7517;48.400;11.770;2022-10-31T14:17:38;96601.00;;;22.60
14851;BMP180;7517;48.400;11.770;2022-10-31T14:20:36;96607.00;;;22.50
14851;BMP180;7517;48.400;11.770;2022-10-31T14:23:35;96613.00;;;22.50
14851;BMP180;7517;48.400;11.770;2022-10-31T14:26:18;96596.00;;;22.40
14851;BMP180;7517;48.400;11.770;2022-10-31T14:28:47;96596.00;;;22.40
14851;BMP180;7517;48.400;11.770;2022-10-31T14:31:35;96596.00;;;22.30
14851;BMP180;7517;48.400;11.770;2022-10-31T14:34:20;96589.00;;;22.30
14851;BMP180;7517;48.400;11.770;2022-10-31T14:37:03;96596.00;;;22.20
14851;BMP180;7517;48.400;11.770;2022-10-31T14:39:39;96594.00;;;22.20
14851;BMP180;7517;48.400;11.770;2022-10-31T14:42:35;96584.00;;;22.10
14851;BMP180;7517;48.400;11.770;2022-10-31T14:45:38;96580.00;;;22.10